< < Back
Terminal Aerodrome Forecast


Current Version              Previous Versions:   1  2  3  4  5  6  7  8  9  

Terminal Aerodrome Forecast

439
FTUS42 KFFC 130545
TAFCSG
TAF
KCSG 130545Z 1306/1406 35008KT P6SM SKC
     FM140000 01004KT P6SM SKC=

Latest METAR

172
SAUS70 KWBC 131600 RRW
MTRCSG
METAR KCSG 131651Z 36010KT 10SM CLR 07/M13 A3042 RMK AO2 SLP300
T00671133


USA.gov is the U.S. government's official web portal to all federal, state and local government web resources and services.